sensor_id;sensor_type;location;lat;lon;timestamp;temperature;humidity
25208;DHT22;13153;52.316;21.166;2024-02-04T00:02:24;7.10;1.00
25208;DHT22;13153;52.316;21.166;2024-02-04T00:04:51;7.00;1.00
25208;DHT22;13153;52.316;21.166;2024-02-04T00:07:17;7.00;1.00
25208;DHT22;13153;52.316;21.166;2024-02-04T00:09:43;7.00;1.00
25208;DHT22;13153;52.316;21.166;2024-02-04T00:12:10;7.00;1.00
25208;DHT22;13153;52.316;21.166;2024-02-04T00:14:36;7.00;1.00
25208;DHT22;13153;52.316;21.166;2024-02-04T00:17:01;6.90;1.00
25208;DHT22;13153;52.316;21.166;2024-02-04T00:19:27;7.00;1.00
25208;DHT22;13153;52.316;21.166;2024-02-04T00:21:53;6.90;1.00
25208;DHT22;13153;52.316;21.166;2024-02-04T00:24:18;6.90;1.00
25208;DHT22;13153;52.316;21.166;2024-02-04T00:26:45;6.90;1.00
25208;DHT22;13153;52.316;21.166;2024-02-04T00:29:11;6.90;1.00
25208;DHT22;13153;52.316;21.166;2024-02-04T00:31:36;6.90;1.00
25208;DHT22;13153;52.316;21.166;2024-02-04T00:34:02;6.90;1.00
25208;DHT22;13153;52.316;21.166;2024-02-04T00:36:28;6.90;1.00
25208;DHT22;13153;52.316;21.166;2024-02-04T00:38:54;6.80;1.00
25208;DHT22;13153;52.316;21.166;2024-02-04T00:41:20;6.80;1.00
25208;DHT22;13153;52.316;21.166;2024-02-04T00:43:46;6.80;1.00
25208;DHT22;13153;52.316;21.166;2024-02-04T00:46:11;6.80;1.00
25208;DHT22;13153;52.316;21.166;2024-02-04T00:48:37;6.80;1.00
25208;DHT22;13153;52.316;21.166;2024-02-04T00:51:04;6.80;1.00
25208;DHT22;13153;52.316;21.166;2024-02-04T00:53:29;6.70;1.00
25208;DHT22;13153;52.316;21.166;2024-02-04T00:56:08;6.70;1.00
25208;DHT22;13153;52.316;21.166;2024-02-04T00:58:35;6.70;1.00
25208;DHT22;13153;52.316;21.166;2024-02-04T01:01:01;6.70;1.00
25208;DHT22;13153;52.316;21.166;2024-02-04T01:03:27;6.70;1.00
25208;DHT22;13153;52.316;21.166;2024-02-04T01:05:53;6.70;1.00
25208;DHT22;13153;52.316;21.166;2024-02-04T01:08:21;6.60;1.00
25208;DHT22;13153;52.316;21.166;2024-02-04T01:10:47;6.60;1.00
25208;DHT22;13153;52.316;21.166;2024-02-04T01:13:13;6.60;1.00
25208;DHT22;13153;52.316;21.166;2024-02-04T01:15:39;6.70;1.00
25208;DHT22;13153;52.316;21.166;2024-02-04T01:18:05;6.60;1.00
25208;DHT22;13153;52.316;21.166;2024-02-04T01:20:31;6.70;1.00
25208;DHT22;13153;52.316;21.166;2024-02-04T01:22:56;6.70;1.00
25208;DHT22;13153;52.316;21.166;2024-02-04T01:25:22;6.70;1.00
25208;DHT22;13153;52.316;21.166;2024-02-04T01:27:48;6.70;1.00
25208;DHT22;13153;52.316;21.166;2024-02-04T01:30:13;6.70;1.00
25208;DHT22;13153;52.316;21.166;2024-02-04T01:32:39;6.70;1.00
25208;DHT22;13153;52.316;21.166;2024-02-04T01:35:06;6.70;1.00
25208;DHT22;13153;52.316;21.166;2024-02-04T01:37:32;6.70;1.00
25208;DHT22;13153;52.316;21.166;2024-02-04T01:39:58;6.80;1.00
25208;DHT22;13153;52.316;21.166;2024-02-04T01:42:23;6.80;1.00
25208;DHT22;13153;52.316;21.166;2024-02-04T01:44:49;6.70;1.00
25208;DHT22;13153;52.316;21.166;2024-02-04T01:47:15;6.70;1.00
25208;DHT22;13153;52.316;21.166;2024-02-04T01:49:41;6.70;1.00
25208;DHT22;13153;52.316;21.166;2024-02-04T01:52:08;6.70;1.00
25208;DHT22;13153;52.316;21.166;2024-02-04T01:54:37;6.70;1.00
25208;DHT22;13153;52.316;21.166;2024-02-04T01:57:06;6.70;1.00
25208;DHT22;13153;52.316;21.166;2024-02-04T01:59:32;6.70;1.00
25208;DHT22;13153;52.316;21.166;2024-02-04T02:01:59;6.70;1.00
25208;DHT22;13153;52.316;21.166;2024-02-04T02:04:26;6.70;1.00
25208;DHT22;13153;52.316;21.166;2024-02-04T02:06:55;6.70;1.00
25208;DHT22;13153;52.316;21.166;2024-02-04T02:09:22;6.70;1.00
25208;DHT22;13153;52.316;21.166;2024-02-04T02:11:54;6.70;1.00
25208;DHT22;13153;52.316;21.166;2024-02-04T02:14:32;6.60;1.00
25208;DHT22;13153;52.316;21.166;2024-02-04T02:17:06;6.70;1.00
25208;DHT22;13153;52.316;21.166;2024-02-04T02:19:57;6.70;1.00
25208;DHT22;13153;52.316;21.166;2024-02-04T02:22:48;6.70;1.00
25208;DHT22;13153;52.316;21.166;2024-02-04T02:25:16;6.70;1.00
25208;DHT22;13153;52.316;21.166;2024-02-04T02:27:51;6.60;1.00
25208;DHT22;13153;52.316;21.166;2024-02-04T02:30:17;6.60;1.00
25208;DHT22;13153;52.316;21.166;2024-02-04T02:32:44;6.60;1.00
25208;DHT22;13153;52.316;21.166;2024-02-04T02:35:15;6.60;1.00
25208;DHT22;13153;52.316;21.166;2024-02-04T02:38:23;6.70;1.00
25208;DHT22;13153;52.316;21.166;2024-02-04T02:41:03;6.70;1.00
25208;DHT22;13153;52.316;21.166;2024-02-04T02:43:30;6.70;1.00
25208;DHT22;13153;52.316;21.166;2024-02-04T02:45:57;6.70;1.00
25208;DHT22;13153;52.316;21.166;2024-02-04T02:48:24;6.70;1.00
25208;DHT22;13153;52.316;21.166;2024-02-04T02:50:50;6.70;1.00
25208;DHT22;13153;52.316;21.166;2024-02-04T02:53:16;6.80;1.00
25208;DHT22;13153;52.316;21.166;2024-02-04T02:55:44;6.80;1.00
25208;DHT22;13153;52.316;21.166;2024-02-04T02:58:12;6.70;1.00
25208;DHT22;13153;52.316;21.166;2024-02-04T03:00:38;6.70;1.00
25208;DHT22;13153;52.316;21.166;2024-02-04T03:03:04;6.70;1.00
25208;DHT22;13153;52.316;21.166;2024-02-04T03:05:30;6.70;1.00
25208;DHT22;13153;52.316;21.166;2024-02-04T03:07:55;6.70;1.00
25208;DHT22;13153;52.316;21.166;2024-02-04T03:10:21;6.70;1.00
25208;DHT22;13153;52.316;21.166;2024-02-04T03:12:47;6.80;1.00
25208;DHT22;13153;52.316;21.166;2024-02-04T03:15:13;6.80;1.00
25208;DHT22;13153;52.316;21.166;2024-02-04T03:17:38;6.80;1.00
25208;DHT22;13153;52.316;21.166;2024-02-04T03:20:04;6.80;1.00
25208;DHT22;13153;52.316;21.166;2024-02-04T03:22:30;6.80;1.00
25208;DHT22;13153;52.316;21.166;2024-02-04T03:24:56;6.80;1.00
25208;DHT22;13153;52.316;21.166;2024-02-04T03:27:22;6.80;1.00
25208;DHT22;13153;52.316;21.166;2024-02-04T03:29:47;6.90;1.00
25208;DHT22;13153;52.316;21.166;2024-02-04T03:32:13;6.90;1.00
25208;DHT22;13153;52.316;21.166;2024-02-04T03:34:41;6.90;1.00
25208;DHT22;13153;52.316;21.166;2024-02-04T03:37:07;6.90;1.00
25208;DHT22;13153;52.316;21.166;2024-02-04T03:39:33;6.90;1.00
25208;DHT22;13153;52.316;21.166;2024-02-04T03:41:59;6.90;1.00
25208;DHT22;13153;52.316;21.166;2024-02-04T03:44:24;6.80;1.00
25208;DHT22;13153;52.316;21.166;2024-02-04T03:46:50;6.80;1.00
25208;DHT22;13153;52.316;21.166;2024-02-04T03:49:17;6.70;1.00
25208;DHT22;13153;52.316;21.166;2024-02-04T03:51:43;6.70;1.00
25208;DHT22;13153;52.316;21.166;2024-02-04T03:54:09;6.70;1.00
25208;DHT22;13153;52.316;21.166;2024-02-04T03:56:35;6.60;1.00
25208;DHT22;13153;52.316;21.166;2024-02-04T03:59:00;6.60;1.00
25208;DHT22;13153;52.316;21.166;2024-02-04T04:01:26;6.60;1.00
25208;DHT22;13153;52.316;21.166;2024-02-04T04:03:52;6.50;99.90
25208;DHT22;13153;52.316;21.166;2024-02-04T04:06:18;6.60;99.90
25208;DHT22;13153;52.316;21.166;2024-02-04T04:08:43;6.60;99.90
25208;DHT22;13153;52.316;21.166;2024-02-04T04:11:10;6.70;99.90
25208;DHT22;13153;52.316;21.166;2024-02-04T04:13:36;6.70;99.90
25208;DHT22;13153;52.316;21.166;2024-02-04T04:16:03;6.70;2.20
25208;DHT22;13153;52.316;21.166;2024-02-04T04:18:30;6.70;99.90
25208;DHT22;13153;52.316;21.166;2024-02-04T04:20:56;6.70;1.00
25208;DHT22;13153;52.316;21.166;2024-02-04T04:23:22;6.70;1.00
25208;DHT22;13153;52.316;21.166;2024-02-04T04:25:48;6.70;1.00
25208;DHT22;13153;52.316;21.166;2024-02-04T04:28:14;6.70;1.00
25208;DHT22;13153;52.316;21.166;2024-02-04T04:30:39;6.70;1.00
25208;DHT22;13153;52.316;21.166;2024-02-04T04:33:05;6.70;1.00
25208;DHT22;13153;52.316;21.166;2024-02-04T04:35:32;6.70;1.00
25208;DHT22;13153;52.316;21.166;2024-02-04T04:37:57;6.70;1.00
25208;DHT22;13153;52.316;21.166;2024-02-04T04:40:23;6.70;1.00
25208;DHT22;13153;52.316;21.166;2024-02-04T04:42:49;6.60;1.00
25208;DHT22;13153;52.316;21.166;2024-02-04T04:45:15;6.60;1.00
25208;DHT22;13153;52.316;21.166;2024-02-04T04:47:41;6.60;1.00
25208;DHT22;13153;52.316;21.166;2024-02-04T04:50:07;6.60;1.00
25208;DHT22;13153;52.316;21.166;2024-02-04T04:52:33;6.60;1.00
25208;DHT22;13153;52.316;21.166;2024-02-04T04:54:59;6.70;1.00
25208;DHT22;13153;52.316;21.166;2024-02-04T04:57:24;6.70;99.90
25208;DHT22;13153;52.316;21.166;2024-02-04T04:59:50;6.60;99.90
25208;DHT22;13153;52.316;21.166;2024-02-04T05:02:16;6.60;99.90
25208;DHT22;13153;52.316;21.166;2024-02-04T05:04:43;6.60;1.00
25208;DHT22;13153;52.316;21.166;2024-02-04T05:07:15;6.60;99.90
25208;DHT22;13153;52.316;21.166;2024-02-04T05:09:41;6.40;1.00
25208;DHT22;13153;52.316;21.166;2024-02-04T05:12:08;6.10;1.00
25208;DHT22;13153;52.316;21.166;2024-02-04T05:14:35;6.00;1.00
25208;DHT22;13153;52.316;21.166;2024-02-04T05:17:01;5.90;1.00
25208;DHT22;13153;52.316;21.166;2024-02-04T05:19:26;6.00;1.00
25208;DHT22;13153;52.316;21.166;2024-02-04T05:21:52;5.90;9.60
25208;DHT22;13153;52.316;21.166;2024-02-04T05:24:18;5.90;15.80
25208;DHT22;13153;52.316;21.166;2024-02-04T05:26:43;5.90;25.70
25208;DHT22;13153;52.316;21.166;2024-02-04T05:29:09;5.80;41.20
25208;DHT22;13153;52.316;21.166;2024-02-04T05:31:43;5.80;48.40
25208;DHT22;13153;52.316;21.166;2024-02-04T05:34:10;5.80;58.70
25208;DHT22;13153;52.316;21.166;2024-02-04T05:36:36;5.80;57.80
25208;DHT22;13153;52.316;21.166;2024-02-04T05:39:12;5.80;33.80
25208;DHT22;13153;52.316;21.166;2024-02-04T05:41:40;5.80;42.50
25208;DHT22;13153;52.316;21.166;2024-02-04T05:44:07;5.70;1.00
25208;DHT22;13153;52.316;21.166;2024-02-04T05:46:35;5.70;1.00
25208;DHT22;13153;52.316;21.166;2024-02-04T05:49:01;5.70;1.00
25208;DHT22;13153;52.316;21.166;2024-02-04T05:51:27;5.80;1.00
25208;DHT22;13153;52.316;21.166;2024-02-04T05:53:53;5.80;1.00
25208;DHT22;13153;52.316;21.166;2024-02-04T05:56:20;5.80;1.00
25208;DHT22;13153;52.316;21.166;2024-02-04T05:58:47;5.70;1.00
25208;DHT22;13153;52.316;21.166;2024-02-04T06:01:15;5.70;1.00
25208;DHT22;13153;52.316;21.166;2024-02-04T06:03:42;5.60;1.00
25208;DHT22;13153;52.316;21.166;2024-02-04T06:06:13;5.70;1.00
25208;DHT22;13153;52.316;21.166;2024-02-04T06:08:40;5.60;1.00
25208;DHT22;13153;52.316;21.166;2024-02-04T06:11:05;5.60;1.00
25208;DHT22;13153;52.316;21.166;2024-02-04T06:13:35;5.50;1.00
25208;DHT22;13153;52.316;21.166;2024-02-04T06:16:01;5.60;1.00
25208;DHT22;13153;52.316;21.166;2024-02-04T06:18:26;5.60;1.00
25208;DHT22;13153;52.316;21.166;2024-02-04T06:20:52;5.60;1.00
25208;DHT22;13153;52.316;21.166;2024-02-04T06:23:18;5.60;1.00
25208;DHT22;13153;52.316;21.166;2024-02-04T06:25:45;5.70;1.00
25208;DHT22;13153;52.316;21.166;2024-02-04T06:28:10;5.70;1.00
25208;DHT22;13153;52.316;21.166;2024-02-04T06:30:36;5.70;1.00
25208;DHT22;13153;52.316;21.166;2024-02-04T06:33:02;5.70;1.00
25208;DHT22;13153;52.316;21.166;2024-02-04T06:35:29;5.70;1.00
25208;DHT22;13153;52.316;21.166;2024-02-04T06:37:54;5.80;1.00
25208;DHT22;13153;52.316;21.166;2024-02-04T06:40:20;5.80;1.00
25208;DHT22;13153;52.316;21.166;2024-02-04T06:42:46;5.70;1.00
25208;DHT22;13153;52.316;21.166;2024-02-04T06:45:12;5.70;1.00
25208;DHT22;13153;52.316;21.166;2024-02-04T06:47:37;5.80;1.00
25208;DHT22;13153;52.316;21.166;2024-02-04T06:50:03;5.80;1.00
25208;DHT22;13153;52.316;21.166;2024-02-04T06:52:31;5.90;1.00
25208;DHT22;13153;52.316;21.166;2024-02-04T06:54:56;5.90;99.90
25208;DHT22;13153;52.316;21.166;2024-02-04T06:57:22;5.90;99.90
25208;DHT22;13153;52.316;21.166;2024-02-04T06:59:48;5.90;99.90
25208;DHT22;13153;52.316;21.166;2024-02-04T07:02:14;5.90;99.90
25208;DHT22;13153;52.316;21.166;2024-02-04T07:04:40;5.90;99.90
25208;DHT22;13153;52.316;21.166;2024-02-04T07:07:06;6.00;99.90
25208;DHT22;13153;52.316;21.166;2024-02-04T07:09:32;6.00;99.90
25208;DHT22;13153;52.316;21.166;2024-02-04T07:11:58;6.00;99.90
25208;DHT22;13153;52.316;21.166;2024-02-04T07:14:24;6.00;99.90
25208;DHT22;13153;52.316;21.166;2024-02-04T07:16:49;6.10;99.90
25208;DHT22;13153;52.316;21.166;2024-02-04T07:19:15;6.20;99.90
25208;DHT22;13153;52.316;21.166;2024-02-04T07:21:41;6.30;99.90
25208;DHT22;13153;52.316;21.166;2024-02-04T07:24:07;6.30;1.00
25208;DHT22;13153;52.316;21.166;2024-02-04T07:26:32;6.30;1.00
25208;DHT22;13153;52.316;21.166;2024-02-04T07:28:58;6.40;1.00
25208;DHT22;13153;52.316;21.166;2024-02-04T07:31:24;6.40;1.00
25208;DHT22;13153;52.316;21.166;2024-02-04T07:33:49;6.40;50.10
25208;DHT22;13153;52.316;21.166;2024-02-04T07:36:15;6.40;1.00
25208;DHT22;13153;52.316;21.166;2024-02-04T07:38:41;6.40;1.00
25208;DHT22;13153;52.316;21.166;2024-02-04T07:41:07;6.40;1.00
25208;DHT22;13153;52.316;21.166;2024-02-04T07:43:33;6.40;1.00
25208;DHT22;13153;52.316;21.166;2024-02-04T07:45:58;6.40;1.00
25208;DHT22;13153;52.316;21.166;2024-02-04T07:48:24;6.50;1.00
25208;DHT22;13153;52.316;21.166;2024-02-04T07:50:50;6.50;1.00
25208;DHT22;13153;52.316;21.166;2024-02-04T07:53:16;6.50;1.00
25208;DHT22;13153;52.316;21.166;2024-02-04T07:55:41;6.50;1.00
25208;DHT22;13153;52.316;21.166;2024-02-04T07:58:07;6.40;1.00
25208;DHT22;13153;52.316;21.166;2024-02-04T08:00:33;6.40;1.00
25208;DHT22;13153;52.316;21.166;2024-02-04T08:02:59;6.40;55.00
25208;DHT22;13153;52.316;21.166;2024-02-04T08:05:24;6.40;1.00
25208;DHT22;13153;52.316;21.166;2024-02-04T08:07:50;6.40;1.00
25208;DHT22;13153;52.316;21.166;2024-02-04T08:10:16;6.30;25.70
25208;DHT22;13153;52.316;21.166;2024-02-04T08:12:42;6.30;88.70
25208;DHT22;13153;52.316;21.166;2024-02-04T08:15:08;6.40;1.00
25208;DHT22;13153;52.316;21.166;2024-02-04T08:17:34;6.40;55.10
25208;DHT22;13153;52.316;21.166;2024-02-04T08:20:00;6.40;99.90
25208;DHT22;13153;52.316;21.166;2024-02-04T08:22:26;6.40;1.00
25208;DHT22;13153;52.316;21.166;2024-02-04T08:24:51;6.40;1.00
25208;DHT22;13153;52.316;21.166;2024-02-04T08:27:17;6.40;15.20
25208;DHT22;13153;52.316;21.166;2024-02-04T08:29:43;6.40;31.50
25208;DHT22;13153;52.316;21.166;2024-02-04T08:32:10;6.50;1.00
25208;DHT22;13153;52.316;21.166;2024-02-04T08:34:35;6.40;30.40
25208;DHT22;13153;52.316;21.166;2024-02-04T08:37:02;6.40;1.00
25208;DHT22;13153;52.316;21.166;2024-02-04T08:39:28;6.40;3.70
25208;DHT22;13153;52.316;21.166;2024-02-04T08:41:55;6.30;1.00
25208;DHT22;13153;52.316;21.166;2024-02-04T08:44:21;6.40;99.90
25208;DHT22;13153;52.316;21.166;2024-02-04T08:46:47;6.40;99.90
25208;DHT22;13153;52.316;21.166;2024-02-04T08:49:12;6.40;99.90
25208;DHT22;13153;52.316;21.166;2024-02-04T08:51:38;6.40;99.90
25208;DHT22;13153;52.316;21.166;2024-02-04T08:54:04;6.30;99.90
25208;DHT22;13153;52.316;21.166;2024-02-04T08:56:29;6.30;99.90
25208;DHT22;13153;52.316;21.166;2024-02-04T08:58:56;6.40;99.90
25208;DHT22;13153;52.316;21.166;2024-02-04T09:01:21;6.40;35.30
25208;DHT22;13153;52.316;21.166;2024-02-04T09:03:47;6.30;1.00
25208;DHT22;13153;52.316;21.166;2024-02-04T09:06:13;6.30;1.00
25208;DHT22;13153;52.316;21.166;2024-02-04T09:08:39;6.30;1.00
25208;DHT22;13153;52.316;21.166;2024-02-04T09:11:04;6.30;1.00
25208;DHT22;13153;52.316;21.166;2024-02-04T09:13:30;6.30;1.00
25208;DHT22;13153;52.316;21.166;2024-02-04T09:15:56;6.30;1.00
25208;DHT22;13153;52.316;21.166;2024-02-04T09:18:22;6.40;1.00
25208;DHT22;13153;52.316;21.166;2024-02-04T09:20:48;6.40;1.00
25208;DHT22;13153;52.316;21.166;2024-02-04T09:23:13;6.40;1.00
25208;DHT22;13153;52.316;21.166;2024-02-04T09:25:39;6.40;1.00
25208;DHT22;13153;52.316;21.166;2024-02-04T09:28:05;6.40;99.90
25208;DHT22;13153;52.316;21.166;2024-02-04T09:30:31;6.40;1.00
25208;DHT22;13153;52.316;21.166;2024-02-04T09:32:56;6.50;99.90
25208;DHT22;13153;52.316;21.166;2024-02-04T09:35:22;6.50;99.90
25208;DHT22;13153;52.316;21.166;2024-02-04T09:37:48;6.60;99.90
25208;DHT22;13153;52.316;21.166;2024-02-04T09:40:14;6.60;37.70
25208;DHT22;13153;52.316;21.166;2024-02-04T09:42:40;6.60;22.00
25208;DHT22;13153;52.316;21.166;2024-02-04T09:45:06;6.60;1.00
25208;DHT22;13153;52.316;21.166;2024-02-04T09:47:34;6.60;1.00
25208;DHT22;13153;52.316;21.166;2024-02-04T09:50:01;6.60;1.00
25208;DHT22;13153;52.316;21.166;2024-02-04T09:52:29;6.60;1.00
25208;DHT22;13153;52.316;21.166;2024-02-04T09:55:02;6.60;1.00
25208;DHT22;13153;52.316;21.166;2024-02-04T09:57:32;6.60;18.00
25208;DHT22;13153;52.316;21.166;2024-02-04T09:59:59;6.70;1.00
25208;DHT22;13153;52.316;21.166;2024-02-04T10:02:32;6.70;1.00
25208;DHT22;13153;52.316;21.166;2024-02-04T10:04:58;6.70;99.90
25208;DHT22;13153;52.316;21.166;2024-02-04T10:07:23;6.60;1.00
25208;DHT22;13153;52.316;21.166;2024-02-04T10:09:50;6.60;99.90
25208;DHT22;13153;52.316;21.166;2024-02-04T10:12:17;6.60;1.00
25208;DHT22;13153;52.316;21.166;2024-02-04T10:14:42;6.70;1.00
25208;DHT22;13153;52.316;21.166;2024-02-04T10:17:08;6.70;1.00
25208;DHT22;13153;52.316;21.166;2024-02-04T10:19:34;6.70;1.00
25208;DHT22;13153;52.316;21.166;2024-02-04T10:22:03;6.70;99.90
25208;DHT22;13153;52.316;21.166;2024-02-04T10:24:29;6.70;1.00
25208;DHT22;13153;52.316;21.166;2024-02-04T10:26:56;6.70;1.00
25208;DHT22;13153;52.316;21.166;2024-02-04T10:29:23;6.70;1.00
25208;DHT22;13153;52.316;21.166;2024-02-04T10:31:56;6.70;99.90
25208;DHT22;13153;52.316;21.166;2024-02-04T10:34:25;6.70;1.00
25208;DHT22;13153;52.316;21.166;2024-02-04T10:36:51;6.70;1.00
25208;DHT22;13153;52.316;21.166;2024-02-04T10:39:17;6.70;1.00
25208;DHT22;13153;52.316;21.166;2024-02-04T10:41:51;6.70;1.00
25208;DHT22;13153;52.316;21.166;2024-02-04T10:44:22;6.70;1.00
25208;DHT22;13153;52.316;21.166;2024-02-04T10:46:50;6.80;1.00
25208;DHT22;13153;52.316;21.166;2024-02-04T10:49:19;6.70;1.00
25208;DHT22;13153;52.316;21.166;2024-02-04T10:51:45;6.70;99.90
25208;DHT22;13153;52.316;21.166;2024-02-04T10:54:14;6.70;1.00
25208;DHT22;13153;52.316;21.166;2024-02-04T10:56:47;6.70;1.00
25208;DHT22;13153;52.316;21.166;2024-02-04T10:59:20;6.70;1.00
25208;DHT22;13153;52.316;21.166;2024-02-04T11:01:47;6.70;99.90
25208;DHT22;13153;52.316;21.166;2024-02-04T11:04:14;6.70;1.00
25208;DHT22;13153;52.316;21.166;2024-02-04T11:06:42;6.70;68.60
25208;DHT22;13153;52.316;21.166;2024-02-04T11:09:11;6.80;18.80
25208;DHT22;13153;52.316;21.166;2024-02-04T11:11:40;6.80;99.90
25208;DHT22;13153;52.316;21.166;2024-02-04T11:14:10;6.70;1.00
25208;DHT22;13153;52.316;21.166;2024-02-04T11:23:37;6.70;1.00
25208;DHT22;13153;52.316;21.166;2024-02-04T11:26:15;6.70;1.00
25208;DHT22;13153;52.316;21.166;2024-02-04T11:28:43;6.80;89.80
25208;DHT22;13153;52.316;21.166;2024-02-04T11:31:17;6.80;99.90
25208;DHT22;13153;52.316;21.166;2024-02-04T11:33:44;6.70;99.90
25208;DHT22;13153;52.316;21.166;2024-02-04T11:36:14;6.70;1.00
25208;DHT22;13153;52.316;21.166;2024-02-04T11:38:43;6.60;1.00
25208;DHT22;13153;52.316;21.166;2024-02-04T11:41:24;6.60;1.00
25208;DHT22;13153;52.316;21.166;2024-02-04T11:44:00;6.60;1.00
25208;DHT22;13153;52.316;21.166;2024-02-04T11:46:32;6.60;1.00
25208;DHT22;13153;52.316;21.166;2024-02-04T11:48:59;6.70;1.00
25208;DHT22;13153;52.316;21.166;2024-02-04T11:51:25;6.70;1.00
25208;DHT22;13153;52.316;21.166;2024-02-04T11:53:51;6.60;1.00
25208;DHT22;13153;52.316;21.166;2024-02-04T11:56:18;6.60;1.00
25208;DHT22;13153;52.316;21.166;2024-02-04T11:58:45;6.60;1.00
25208;DHT22;13153;52.316;21.166;2024-02-04T12:01:12;6.50;1.00
25208;DHT22;13153;52.316;21.166;2024-02-04T12:03:37;6.60;1.00
25208;DHT22;13153;52.316;21.166;2024-02-04T12:06:04;6.60;1.00
25208;DHT22;13153;52.316;21.166;2024-02-04T12:08:32;6.60;1.00
25208;DHT22;13153;52.316;21.166;2024-02-04T12:11:00;6.60;1.00
25208;DHT22;13153;52.316;21.166;2024-02-04T12:13:28;6.50;1.00
25208;DHT22;13153;52.316;21.166;2024-02-04T12:15:54;6.50;1.00
25208;DHT22;13153;52.316;21.166;2024-02-04T12:18:20;6.60;1.00
25208;DHT22;13153;52.316;21.166;2024-02-04T12:20:47;6.60;1.00
25208;DHT22;13153;52.316;21.166;2024-02-04T12:23:17;6.60;11.30
25208;DHT22;13153;52.316;21.166;2024-02-04T12:25:48;6.50;38.20
25208;DHT22;13153;52.316;21.166;2024-02-04T12:28:14;6.40;48.90
25208;DHT22;13153;52.316;21.166;2024-02-04T12:30:40;6.50;40.50
25208;DHT22;13153;52.316;21.166;2024-02-04T12:33:18;6.40;40.10
25208;DHT22;13153;52.316;21.166;2024-02-04T12:35:43;6.50;55.40
25208;DHT22;13153;52.316;21.166;2024-02-04T12:38:16;6.50;65.30
25208;DHT22;13153;52.316;21.166;2024-02-04T12:40:43;6.50;45.60
25208;DHT22;13153;52.316;21.166;2024-02-04T12:43:11;6.50;46.20
25208;DHT22;13153;52.316;21.166;2024-02-04T12:45:37;6.60;33.40
25208;DHT22;13153;52.316;21.166;2024-02-04T12:48:03;6.60;13.40
25208;DHT22;13153;52.316;21.166;2024-02-04T12:50:29;6.70;8.40
25208;DHT22;13153;52.316;21.166;2024-02-04T12:53:06;6.60;10.60
25208;DHT22;13153;52.316;21.166;2024-02-04T12:55:34;6.60;24.60
25208;DHT22;13153;52.316;21.166;2024-02-04T12:58:11;6.60;8.40
25208;DHT22;13153;52.316;21.166;2024-02-04T13:00:40;6.60;25.80
25208;DHT22;13153;52.316;21.166;2024-02-04T13:03:07;6.60;23.60
25208;DHT22;13153;52.316;21.166;2024-02-04T13:05:34;6.60;12.90
25208;DHT22;13153;52.316;21.166;2024-02-04T13:08:04;6.50;21.10
25208;DHT22;13153;52.316;21.166;2024-02-04T13:10:35;6.50;31.20
25208;DHT22;13153;52.316;21.166;2024-02-04T13:15:37;6.50;28.00
25208;DHT22;13153;52.316;21.166;2024-02-04T13:18:04;6.50;28.20
25208;DHT22;13153;52.316;21.166;2024-02-04T13:20:31;6.50;34.20
25208;DHT22;13153;52.316;21.166;2024-02-04T13:22:57;6.50;55.40
25208;DHT22;13153;52.316;21.166;2024-02-04T13:25:24;6.50;58.80
25208;DHT22;13153;52.316;21.166;2024-02-04T13:27:50;6.50;92.70
25208;DHT22;13153;52.316;21.166;2024-02-04T13:30:16;6.40;99.90
25208;DHT22;13153;52.316;21.166;2024-02-04T13:32:43;6.40;99.90
25208;DHT22;13153;52.316;21.166;2024-02-04T13:35:09;6.40;99.90
25208;DHT22;13153;52.316;21.166;2024-02-04T13:37:36;6.30;99.90
25208;DHT22;13153;52.316;21.166;2024-02-04T13:40:04;6.30;99.90
25208;DHT22;13153;52.316;21.166;2024-02-04T13:42:32;6.30;99.90
25208;DHT22;13153;52.316;21.166;2024-02-04T13:44:59;6.30;99.90
25208;DHT22;13153;52.316;21.166;2024-02-04T13:47:26;6.30;99.90
25208;DHT22;13153;52.316;21.166;2024-02-04T13:49:52;6.40;99.90
25208;DHT22;13153;52.316;21.166;2024-02-04T13:52:17;6.40;99.90
25208;DHT22;13153;52.316;21.166;2024-02-04T13:54:43;6.40;99.90
25208;DHT22;13153;52.316;21.166;2024-02-04T13:57:09;6.50;99.90
25208;DHT22;13153;52.316;21.166;2024-02-04T13:59:36;6.40;99.90
25208;DHT22;13153;52.316;21.166;2024-02-04T14:02:02;6.40;99.90
25208;DHT22;13153;52.316;21.166;2024-02-04T14:04:29;6.40;99.90
25208;DHT22;13153;52.316;21.166;2024-02-04T14:06:57;6.40;99.90
25208;DHT22;13153;52.316;21.166;2024-02-04T14:09:23;6.40;99.90
25208;DHT22;13153;52.316;21.166;2024-02-04T14:11:48;6.40;99.90
25208;DHT22;13153;52.316;21.166;2024-02-04T14:14:14;6.40;99.90
25208;DHT22;13153;52.316;21.166;2024-02-04T14:16:41;6.40;99.90
25208;DHT22;13153;52.316;21.166;2024-02-04T14:19:07;6.40;99.90
25208;DHT22;13153;52.316;21.166;2024-02-04T14:21:33;6.40;98.70
25208;DHT22;13153;52.316;21.166;2024-02-04T14:24:00;6.40;98.50
25208;DHT22;13153;52.316;21.166;2024-02-04T14:26:26;6.30;97.50
25208;DHT22;13153;52.316;21.166;2024-02-04T14:28:51;6.40;95.80
25208;DHT22;13153;52.316;21.166;2024-02-04T14:31:17;6.40;90.00
25208;DHT22;13153;52.316;21.166;2024-02-04T14:33:43;6.40;88.90
25208;DHT22;13153;52.316;21.166;2024-02-04T14:36:09;6.40;87.50
25208;DHT22;13153;52.316;21.166;2024-02-04T14:38:35;6.40;78.50
25208;DHT22;13153;52.316;21.166;2024-02-04T14:41:04;6.40;17.90
25208;DHT22;13153;52.316;21.166;2024-02-04T14:43:30;6.40;14.00
25208;DHT22;13153;52.316;21.166;2024-02-04T14:45:56;6.40;13.10
25208;DHT22;13153;52.316;21.166;2024-02-04T14:48:22;6.40;24.50
25208;DHT22;13153;52.316;21.166;2024-02-04T14:50:48;6.30;48.00
25208;DHT22;13153;52.316;21.166;2024-02-04T14:53:14;6.40;1.00
25208;DHT22;13153;52.316;21.166;2024-02-04T14:55:39;6.40;1.00
25208;DHT22;13153;52.316;21.166;2024-02-04T14:58:05;6.40;1.00
25208;DHT22;13153;52.316;21.166;2024-02-04T15:00:31;6.40;1.00
25208;DHT22;13153;52.316;21.166;2024-02-04T15:02:58;6.40;1.00
25208;DHT22;13153;52.316;21.166;2024-02-04T15:05:25;6.40;1.00
25208;DHT22;13153;52.316;21.166;2024-02-04T15:07:51;6.40;1.00
25208;DHT22;13153;52.316;21.166;2024-02-04T15:10:18;6.40;1.00
25208;DHT22;13153;52.316;21.166;2024-02-04T15:12:44;6.40;1.00
25208;DHT22;13153;52.316;21.166;2024-02-04T15:15:10;6.40;1.00
25208;DHT22;13153;52.316;21.166;2024-02-04T15:17:36;6.40;1.00
25208;DHT22;13153;52.316;21.166;2024-02-04T15:20:03;6.50;1.00
25208;DHT22;13153;52.316;21.166;2024-02-04T15:22:29;6.40;1.00
25208;DHT22;13153;52.316;21.166;2024-02-04T15:24:56;6.50;1.00
25208;DHT22;13153;52.316;21.166;2024-02-04T15:27:24;6.50;1.00
25208;DHT22;13153;52.316;21.166;2024-02-04T15:29:52;6.50;1.00
25208;DHT22;13153;52.316;21.166;2024-02-04T15:32:21;6.50;1.00
25208;DHT22;13153;52.316;21.166;2024-02-04T15:34:49;6.50;1.00
25208;DHT22;13153;52.316;21.166;2024-02-04T15:37:16;6.50;1.00
25208;DHT22;13153;52.316;21.166;2024-02-04T15:39:43;6.60;1.00
25208;DHT22;13153;52.316;21.166;2024-02-04T15:42:09;6.60;1.00
25208;DHT22;13153;52.316;21.166;2024-02-04T15:44:35;6.60;1.00
25208;DHT22;13153;52.316;21.166;2024-02-04T15:47:07;6.60;1.00
25208;DHT22;13153;52.316;21.166;2024-02-04T15:49:41;6.60;1.00